createdAt,value
2022-10-11T12:16:09.805Z,129.77
2022-10-11T12:18:46.903Z,31.70
2022-10-11T12:21:22.590Z,46.63
2022-10-11T12:24:09.324Z,34.53
2022-10-11T12:26:37.544Z,76.22
2022-10-11T12:29:05.796Z,24.35
2022-10-11T12:31:34.714Z,33.28
2022-10-11T12:34:01.145Z,35.08
2022-10-11T12:36:36.495Z,22.98
2022-10-11T12:39:21.061Z,31.48
2022-10-11T12:41:47.501Z,45.03
2022-10-11T12:44:14.655Z,39.25
2022-10-11T12:46:43.412Z,50.10
2022-10-11T12:49:09.832Z,58.50
2022-10-11T12:51:40.852Z,30.35
2022-10-11T12:54:26.673Z,16.98
2022-10-11T12:57:08.392Z,40.95
2022-10-11T12:59:43.042Z,26.55
2022-10-11T13:02:28.853Z,26.08
2022-10-11T13:05:06.643Z,32.92
2022-10-11T13:07:34.329Z,56.88
2022-10-11T13:10:00.915Z,26.80
2022-10-11T13:12:28.843Z,30.15
2022-10-11T13:15:03.800Z,50.33
2022-10-11T13:17:37.273Z,37.92
2022-10-11T13:20:25.079Z,25.40
2022-10-11T13:22:53.787Z,22.17
2022-10-11T13:25:22.332Z,50.47
2022-10-11T13:27:49.768Z,36.97
2022-10-11T13:30:18.493Z,27.70
2022-10-11T13:32:45.380Z,54.50
2022-10-11T13:35:21.011Z,40.65
2022-10-11T13:37:50.521Z,42.42
2022-10-11T13:40:18.431Z,66.45
2022-10-11T13:42:45.288Z,44.28
2022-10-11T13:45:16.592Z,35.65
2022-10-11T13:47:43.294Z,61.17
2022-10-11T13:50:15.926Z,21.13
2022-10-11T13:52:50.913Z,38.42
2022-10-11T13:55:23.462Z,28.27
2022-10-11T13:57:52.270Z,26.58
2022-10-11T14:00:22.038Z,38.28
2022-10-11T14:02:51.103Z,50.13
2022-10-11T14:05:26.455Z,24.58
2022-10-11T14:07:53.363Z,22.35
2022-10-11T14:10:20.847Z,33.17
2022-10-11T14:12:58.016Z,64.35
2022-10-11T14:15:26.368Z,51.70
2022-10-11T14:17:53.176Z,90.15
2022-10-11T14:20:19.635Z,39.15
2022-10-11T14:22:46.379Z,35.65
2022-10-11T14:25:13.222Z,30.90
2022-10-11T14:27:39.848Z,51.85
2022-10-11T14:32:56.613Z,49.60
2022-10-11T14:35:28.432Z,27.33
2022-10-11T14:37:55.096Z,31.70
2022-10-11T14:40:22.924Z,27.65
2022-10-11T14:42:49.465Z,34.95
2022-10-11T14:45:16.098Z,41.83
2022-10-11T14:47:43.238Z,41.75
2022-10-11T14:50:28.553Z,39.28
2022-10-11T14:52:55.741Z,35.53
2022-10-11T14:55:22.723Z,47.70
2022-10-11T14:57:49.358Z,49.83
2022-10-11T15:00:23.730Z,47.63
2022-10-11T15:02:50.984Z,35.20
2022-10-11T15:05:17.504Z,29.25
2022-10-11T15:07:43.946Z,65.72
2022-10-11T15:10:16.667Z,33.65
2022-10-11T15:12:43.162Z,57.38
2022-10-11T15:15:13.490Z,66.25
2022-10-11T15:17:42.635Z,52.92
2022-10-11T15:20:12.358Z,56.17
2022-10-11T15:22:38.791Z,31.40
2022-10-11T15:25:05.745Z,29.30
2022-10-11T15:27:32.179Z,56.03
2022-10-11T15:29:58.693Z,53.00
2022-10-11T15:32:25.144Z,212.25
2022-10-11T15:34:51.559Z,133.40
2022-10-11T15:37:18.028Z,29.58
2022-10-11T15:39:44.486Z,53.15
2022-10-11T15:42:10.911Z,46.83
2022-10-11T15:44:37.392Z,36.42
2022-10-11T15:47:03.861Z,23.23
2022-10-11T15:49:30.307Z,62.75
2022-10-11T15:51:56.996Z,32.67
2022-10-11T15:54:23.565Z,33.00
2022-10-11T15:56:50.040Z,54.75
2022-10-11T15:59:16.534Z,34.30
2022-10-11T16:01:43.271Z,45.22
2022-10-11T16:04:10.026Z,39.90
2022-10-11T16:06:36.478Z,27.95
2022-10-11T16:09:02.991Z,42.92
2022-10-11T16:11:29.410Z,54.25
2022-10-11T16:13:55.900Z,42.38
2022-10-11T16:16:22.334Z,39.85
2022-10-11T16:18:51.599Z,33.78
2022-10-11T16:21:18.249Z,52.58
2022-10-11T16:23:44.727Z,44.63
2022-10-11T16:26:13.391Z,40.33
2022-10-11T16:28:40.059Z,46.28
2022-10-11T16:31:08.172Z,56.17
2022-10-11T16:33:34.738Z,59.35
2022-10-11T16:36:25.273Z,52.92
2022-10-11T16:38:51.767Z,90.47
2022-10-11T16:41:18.189Z,77.63
2022-10-11T16:43:44.677Z,88.63
2022-10-11T16:46:11.160Z,88.35
2022-10-11T16:48:37.572Z,105.50
2022-10-11T16:51:07.823Z,75.20
2022-10-11T16:53:34.898Z,84.75
2022-10-11T16:56:05.034Z,72.82
2022-10-11T16:58:31.635Z,106.13
2022-10-11T17:00:58.298Z,75.43
2022-10-11T17:03:25.053Z,128.02
2022-10-11T17:05:51.544Z,84.57
2022-10-11T17:08:18.211Z,102.82
2022-10-11T17:10:47.307Z,117.22
2022-10-11T17:13:14.108Z,84.78
2022-10-11T17:15:40.570Z,86.03
2022-10-11T17:18:07.084Z,82.82
2022-10-11T17:20:33.691Z,76.15
2022-10-11T17:23:00.115Z,102.85
2022-10-11T17:25:26.590Z,91.22
2022-10-11T17:27:55.008Z,92.57
2022-10-11T17:30:21.840Z,131.23
2022-10-11T17:32:48.273Z,113.15
2022-10-11T17:35:14.750Z,166.70
2022-10-11T17:37:41.324Z,126.15
2022-10-11T17:40:08.173Z,134.60
2022-10-11T17:42:34.598Z,114.38
2022-10-11T17:45:01.671Z,121.57
2022-10-11T17:47:28.208Z,149.73
2022-10-11T17:49:54.970Z,165.80
2022-10-11T17:52:21.460Z,124.82
2022-10-11T17:54:47.971Z,135.20
2022-10-11T17:57:14.417Z,111.43
2022-10-11T17:59:40.977Z,150.27
2022-10-11T18:02:07.592Z,148.60
2022-10-11T18:04:34.120Z,154.43
2022-10-11T18:07:00.548Z,110.22
2022-10-11T18:09:27.209Z,113.00
2022-10-11T18:11:53.634Z,152.32
2022-10-11T18:14:20.731Z,99.72
2022-10-11T18:16:47.265Z,120.43
2022-10-11T18:19:13.785Z,108.97
2022-10-11T18:21:40.633Z,120.88
2022-10-11T18:24:15.062Z,112.70
2022-10-11T18:26:41.905Z,92.90
2022-10-11T18:29:08.720Z,111.28
2022-10-11T18:31:35.326Z,108.97
2022-10-11T18:34:02.784Z,120.25
2022-10-11T18:36:30.600Z,106.00
2022-10-11T18:38:58.539Z,114.78
2022-10-11T18:41:30.519Z,68.65
2022-10-11T18:43:58.328Z,91.35
2022-10-11T18:46:25.373Z,76.53
2022-10-11T18:48:53.041Z,81.50
2022-10-11T18:51:30.229Z,95.00
2022-10-11T18:53:58.829Z,86.85
2022-10-11T18:56:25.754Z,149.65
2022-10-11T18:58:53.105Z,126.82
2022-10-11T19:01:21.224Z,113.22
2022-10-11T19:03:49.016Z,124.32
2022-10-11T19:06:19.391Z,218.85
2022-10-11T19:08:47.013Z,219.00
2022-10-11T19:11:14.222Z,184.85
2022-10-11T19:13:40.642Z,232.88
2022-10-11T19:16:09.442Z,208.45
2022-10-11T19:18:40.438Z,219.35
2022-10-11T19:21:11.360Z,215.98
2022-10-11T19:23:41.785Z,209.18
2022-10-11T19:26:15.523Z,240.18
2022-10-11T19:28:42.590Z,217.73
2022-10-11T19:31:10.318Z,204.27
2022-10-11T19:33:36.945Z,239.75
2022-10-11T19:36:04.638Z,225.50
2022-10-11T19:38:31.645Z,200.43
2022-10-11T19:40:59.934Z,222.35
2022-10-11T19:43:26.481Z,242.57
2022-10-11T19:45:59.195Z,209.32
2022-10-11T19:48:25.648Z,213.77
2022-10-11T19:50:52.103Z,190.02
2022-10-11T19:53:18.567Z,198.45
2022-10-11T19:55:46.601Z,255.63
2022-10-11T19:58:13.190Z,228.98
2022-10-11T20:00:39.632Z,250.15
2022-10-11T20:03:06.051Z,229.95
2022-10-11T20:05:35.598Z,252.77
2022-10-11T20:08:02.019Z,228.57
2022-10-11T20:10:28.475Z,241.65
2022-10-11T20:12:54.933Z,242.90
2022-10-11T20:15:21.376Z,256.02
2022-10-11T20:17:48.250Z,221.13
2022-10-11T20:20:15.401Z,196.32
2022-10-11T20:22:41.878Z,194.02
2022-10-11T20:25:08.519Z,261.52
2022-10-11T20:27:35.073Z,262.88
2022-10-11T20:30:01.758Z,215.98
2022-10-11T20:32:28.437Z,223.23
2022-10-11T20:34:54.900Z,204.45
2022-10-11T20:37:21.328Z,216.73
2022-10-11T20:39:47.778Z,255.93
2022-10-11T20:42:15.311Z,202.55
2022-10-11T20:44:43.644Z,229.75
2022-10-11T20:47:10.062Z,242.98
2022-10-11T20:49:36.500Z,220.68
2022-10-11T20:52:02.946Z,219.05
2022-10-11T20:54:30.623Z,239.88
2022-10-11T20:56:57.666Z,210.55
2022-10-11T20:59:24.197Z,198.10
2022-10-11T21:01:51.103Z,186.38
2022-10-11T21:04:18.851Z,203.05
2022-10-11T21:06:45.783Z,237.38
2022-10-11T21:09:15.527Z,203.63
2022-10-11T21:11:43.228Z,177.50
2022-10-11T21:14:09.662Z,179.35
2022-10-11T21:16:36.622Z,229.48
2022-10-11T21:19:03.970Z,208.18
2022-10-11T21:21:30.889Z,208.70
2022-10-11T21:23:58.713Z,246.20
2022-10-11T21:26:25.569Z,184.27
2022-10-11T21:28:52.094Z,200.20
2022-10-11T21:31:19.150Z,226.90
2022-10-11T21:33:45.926Z,198.30
2022-10-11T21:36:22.587Z,189.52
2022-10-11T21:38:49.859Z,228.30
2022-10-11T21:41:17.943Z,178.90
2022-10-11T21:43:44.758Z,192.05
2022-10-11T21:46:12.287Z,175.85
2022-10-11T21:48:38.794Z,168.10
2022-10-11T21:51:05.910Z,164.48
2022-10-11T21:53:32.733Z,199.82
2022-10-11T21:55:59.839Z,160.00
2022-10-11T21:58:26.701Z,149.32
2022-10-11T22:00:53.279Z,159.10
2022-10-11T22:03:19.760Z,135.48
2022-10-11T22:05:46.684Z,149.18
2022-10-11T22:08:13.710Z,146.63
2022-10-11T22:10:44.014Z,139.07
2022-10-11T22:13:10.709Z,120.57
2022-10-11T22:15:37.203Z,166.05
2022-10-11T22:18:03.795Z,150.73
2022-10-11T22:20:32.349Z,136.57
2022-10-11T22:22:58.752Z,148.95
2022-10-11T22:25:25.250Z,176.95
2022-10-11T22:27:51.665Z,150.35
2022-10-11T22:30:18.138Z,165.13
2022-10-11T22:32:44.596Z,142.35
2022-10-11T22:35:11.033Z,140.57
2022-10-11T22:37:38.004Z,161.10
2022-10-11T22:40:04.906Z,124.90
2022-10-11T22:42:31.501Z,157.68
2022-10-11T22:44:57.941Z,165.27
2022-10-11T22:47:24.361Z,135.85
2022-10-11T22:49:50.769Z,135.30
2022-10-11T22:52:17.246Z,122.13
2022-10-11T22:54:43.721Z,137.55
2022-10-11T22:57:10.188Z,178.52
2022-10-11T22:59:36.682Z,119.68
2022-10-11T23:02:03.095Z,99.75
2022-10-11T23:04:29.515Z,96.68
2022-10-11T23:06:55.933Z,119.97
2022-10-11T23:09:22.447Z,104.47
2022-10-11T23:11:48.896Z,106.38
2022-10-11T23:14:15.522Z,104.18
2022-10-11T23:16:41.955Z,132.57
2022-10-11T23:19:08.438Z,101.43
2022-10-11T23:21:34.994Z,114.93
2022-10-11T23:24:01.444Z,141.50
2022-10-11T23:26:27.942Z,110.88
2022-10-11T23:28:55.106Z,94.85
2022-10-11T23:31:21.587Z,101.18
2022-10-11T23:33:48.305Z,79.70
2022-10-11T23:36:18.694Z,106.75
2022-10-11T23:38:45.231Z,124.10
2022-10-11T23:41:11.636Z,95.88
2022-10-11T23:43:38.089Z,128.75
2022-10-11T23:46:04.613Z,116.82
2022-10-11T23:48:31.081Z,116.60
2022-10-11T23:50:57.508Z,95.68
2022-10-11T23:53:24.019Z,97.45
2022-10-11T23:55:50.692Z,85.57
2022-10-11T23:58:17.243Z,88.35
